sensor_id;sensor_type;location;lat;lon;timestamp;pressure;altitude;pressure_sealevel;temperature;humidity
36598;BME280;22607;49.550;11.940;2023-03-30T00:00:54;96623.81;;;9.13;100.00
36598;BME280;22607;49.550;11.940;2023-03-30T00:03:21;96618.56;;;9.13;100.00
36598;BME280;22607;49.550;11.940;2023-03-30T00:05:49;96616.59;;;9.15;100.00
36598;BME280;22607;49.550;11.940;2023-03-30T00:08:17;96615.91;;;9.22;100.00
36598;BME280;22607;49.550;11.940;2023-03-30T00:10:45;96602.44;;;9.33;100.00
36598;BME280;22607;49.550;11.940;2023-03-30T00:13:12;96612.78;;;9.26;100.00
36598;BME280;22607;49.550;11.940;2023-03-30T00:15:39;96610.63;;;9.30;100.00
36598;BME280;22607;49.550;11.940;2023-03-30T00:18:06;96602.78;;;9.30;100.00
36598;BME280;22607;49.550;11.940;2023-03-30T00:20:34;96614.56;;;9.26;100.00
36598;BME280;22607;49.550;11.940;2023-03-30T00:23:03;96597.84;;;9.35;100.00
36598;BME280;22607;49.550;11.940;2023-03-30T00:25:29;96594.44;;;9.26;100.00
36598;BME280;22607;49.550;11.940;2023-03-30T00:27:56;96598.53;;;9.21;100.00
36598;BME280;22607;49.550;11.940;2023-03-30T00:30:22;96596.22;;;9.34;100.00
36598;BME280;22607;49.550;11.940;2023-03-30T00:32:49;96596.09;;;9.19;100.00
36598;BME280;22607;49.550;11.940;2023-03-30T00:35:16;96591.69;;;9.19;100.00
36598;BME280;22607;49.550;11.940;2023-03-30T00:37:42;96592.63;;;9.27;100.00
36598;BME280;22607;49.550;11.940;2023-03-30T00:40:19;96592.84;;;9.17;100.00
36598;BME280;22607;49.550;11.940;2023-03-30T00:42:47;96580.00;;;9.30;100.00
36598;BME280;22607;49.550;11.940;2023-03-30T00:45:23;96578.44;;;9.53;100.00
36598;BME280;22607;49.550;11.940;2023-03-30T00:48:13;96579.22;;;9.22;100.00
36598;BME280;22607;49.550;11.940;2023-03-30T00:50:55;96578.03;;;9.32;100.00
36598;BME280;22607;49.550;11.940;2023-03-30T00:53:31;96571.41;;;9.13;100.00
36598;BME280;22607;49.550;11.940;2023-03-30T00:56:00;96579.94;;;8.99;100.00
36598;BME280;22607;49.550;11.940;2023-03-30T00:58:28;96583.06;;;8.94;100.00
36598;BME280;22607;49.550;11.940;2023-03-30T01:00:57;96572.06;;;9.07;100.00
36598;BME280;22607;49.550;11.940;2023-03-30T01:03:35;96566.50;;;9.10;100.00
36598;BME280;22607;49.550;11.940;2023-03-30T01:06:04;96565.34;;;9.04;100.00
36598;BME280;22607;49.550;11.940;2023-03-30T01:08:33;96564.88;;;9.01;100.00
36598;BME280;22607;49.550;11.940;2023-03-30T01:11:00;96562.28;;;9.01;100.00
36598;BME280;22607;49.550;11.940;2023-03-30T01:13:29;96562.41;;;9.08;100.00
36598;BME280;22607;49.550;11.940;2023-03-30T01:21:48;96543.09;;;9.00;100.00
36598;BME280;22607;49.550;11.940;2023-03-30T01:30:01;96529.22;;;9.00;100.00
36598;BME280;22607;49.550;11.940;2023-03-30T01:35:33;96527.09;;;8.87;100.00
36598;BME280;22607;49.550;11.940;2023-03-30T01:41:07;96528.94;;;8.86;100.00
36598;BME280;22607;49.550;11.940;2023-03-30T01:43:49;96520.06;;;8.87;100.00
36598;BME280;22607;49.550;11.940;2023-03-30T01:46:28;96512.53;;;8.84;100.00
36598;BME280;22607;49.550;11.940;2023-03-30T01:51:38;96508.13;;;8.93;100.00
36598;BME280;22607;49.550;11.940;2023-03-30T01:54:23;96513.19;;;8.95;100.00
36598;BME280;22607;49.550;11.940;2023-03-30T01:57:07;96497.13;;;8.98;100.00
36598;BME280;22607;49.550;11.940;2023-03-30T01:59:39;96496.47;;;8.96;100.00
36598;BME280;22607;49.550;11.940;2023-03-30T02:02:09;96503.53;;;8.87;100.00
36598;BME280;22607;49.550;11.940;2023-03-30T02:04:41;96497.13;;;8.89;100.00
36598;BME280;22607;49.550;11.940;2023-03-30T02:07:21;96506.34;;;8.85;100.00
36598;BME280;22607;49.550;11.940;2023-03-30T02:09:52;96499.44;;;8.84;100.00
36598;BME280;22607;49.550;11.940;2023-03-30T02:12:19;96496.53;;;8.79;100.00
36598;BME280;22607;49.550;11.940;2023-03-30T02:14:47;96495.88;;;8.85;100.00
36598;BME280;22607;49.550;11.940;2023-03-30T02:17:21;96490.94;;;8.90;100.00
36598;BME280;22607;49.550;11.940;2023-03-30T02:19:48;96503.69;;;8.93;100.00
36598;BME280;22607;49.550;11.940;2023-03-30T02:22:17;96500.56;;;8.98;100.00
36598;BME280;22607;49.550;11.940;2023-03-30T02:24:46;96493.84;;;9.04;100.00
36598;BME280;22607;49.550;11.940;2023-03-30T02:27:14;96484.00;;;8.98;100.00
36598;BME280;22607;49.550;11.940;2023-03-30T02:29:43;96472.06;;;8.95;100.00
36598;BME280;22607;49.550;11.940;2023-03-30T02:32:17;96469.13;;;8.98;100.00
36598;BME280;22607;49.550;11.940;2023-03-30T02:40:27;96471.09;;;8.96;100.00
36598;BME280;22607;49.550;11.940;2023-03-30T02:46:14;96461.75;;;9.02;100.00
36598;BME280;22607;49.550;11.940;2023-03-30T02:48:53;96472.59;;;8.90;100.00
36598;BME280;22607;49.550;11.940;2023-03-30T02:56:47;96458.25;;;8.78;100.00
36598;BME280;22607;49.550;11.940;2023-03-30T02:59:19;96461.47;;;8.88;100.00
36598;BME280;22607;49.550;11.940;2023-03-30T03:01:54;96463.81;;;8.75;100.00
36598;BME280;22607;49.550;11.940;2023-03-30T03:04:25;96459.88;;;8.79;100.00
36598;BME280;22607;49.550;11.940;2023-03-30T03:06:54;96465.78;;;8.81;100.00
36598;BME280;22607;49.550;11.940;2023-03-30T03:09:22;96473.94;;;8.78;100.00
36598;BME280;22607;49.550;11.940;2023-03-30T03:11:51;96482.13;;;8.83;100.00
36598;BME280;22607;49.550;11.940;2023-03-30T03:14:18;96474.88;;;8.93;100.00
36598;BME280;22607;49.550;11.940;2023-03-30T03:16:46;96475.22;;;8.90;100.00
36598;BME280;22607;49.550;11.940;2023-03-30T03:19:13;96482.72;;;8.93;100.00
36598;BME280;22607;49.550;11.940;2023-03-30T03:21:41;96468.66;;;8.95;100.00
36598;BME280;22607;49.550;11.940;2023-03-30T03:24:07;96463.41;;;8.95;100.00
36598;BME280;22607;49.550;11.940;2023-03-30T03:26:35;96461.50;;;8.80;100.00
36598;BME280;22607;49.550;11.940;2023-03-30T03:29:02;96466.41;;;8.83;100.00
36598;BME280;22607;49.550;11.940;2023-03-30T03:31:28;96462.78;;;8.84;100.00
36598;BME280;22607;49.550;11.940;2023-03-30T03:33:55;96472.44;;;8.92;100.00
36598;BME280;22607;49.550;11.940;2023-03-30T03:36:21;96461.09;;;9.00;100.00
36598;BME280;22607;49.550;11.940;2023-03-30T03:38:48;96467.00;;;8.93;100.00
36598;BME280;22607;49.550;11.940;2023-03-30T03:41:14;96464.09;;;8.88;100.00
36598;BME280;22607;49.550;11.940;2023-03-30T03:43:41;96464.59;;;8.92;100.00
36598;BME280;22607;49.550;11.940;2023-03-30T03:46:08;96467.38;;;8.90;100.00
36598;BME280;22607;49.550;11.940;2023-03-30T03:48:34;96469.81;;;8.92;100.00
36598;BME280;22607;49.550;11.940;2023-03-30T03:51:01;96475.84;;;8.92;100.00
36598;BME280;22607;49.550;11.940;2023-03-30T03:53:28;96471.00;;;8.81;100.00
36598;BME280;22607;49.550;11.940;2023-03-30T03:55:54;96465.78;;;8.81;100.00
36598;BME280;22607;49.550;11.940;2023-03-30T03:58:22;96459.25;;;8.69;100.00
36598;BME280;22607;49.550;11.940;2023-03-30T04:00:49;96474.50;;;8.65;100.00
36598;BME280;22607;49.550;11.940;2023-03-30T04:03:16;96466.47;;;8.66;100.00
36598;BME280;22607;49.550;11.940;2023-03-30T04:05:43;96461.75;;;8.53;100.00
36598;BME280;22607;49.550;11.940;2023-03-30T04:08:10;96462.25;;;8.57;100.00
36598;BME280;22607;49.550;11.940;2023-03-30T04:10:38;96460.13;;;8.61;100.00
36598;BME280;22607;49.550;11.940;2023-03-30T04:13:04;96465.66;;;8.49;100.00
36598;BME280;22607;49.550;11.940;2023-03-30T04:15:32;96469.28;;;8.48;100.00
36598;BME280;22607;49.550;11.940;2023-03-30T04:17:58;96465.19;;;8.46;100.00
36598;BME280;22607;49.550;11.940;2023-03-30T04:20:26;96452.44;;;8.43;100.00
36598;BME280;22607;49.550;11.940;2023-03-30T04:22:54;96445.59;;;8.33;100.00
36598;BME280;22607;49.550;11.940;2023-03-30T04:25:22;96441.50;;;8.31;100.00
36598;BME280;22607;49.550;11.940;2023-03-30T04:27:51;96450.50;;;8.36;100.00
36598;BME280;22607;49.550;11.940;2023-03-30T04:30:19;96451.19;;;8.22;100.00
36598;BME280;22607;49.550;11.940;2023-03-30T04:32:48;96448.41;;;8.23;100.00
36598;BME280;22607;49.550;11.940;2023-03-30T04:35:35;96452.50;;;8.18;100.00
36598;BME280;22607;49.550;11.940;2023-03-30T04:38:01;96458.41;;;8.11;100.00
36598;BME280;22607;49.550;11.940;2023-03-30T04:40:28;96464.94;;;8.16;100.00
36598;BME280;22607;49.550;11.940;2023-03-30T04:42:56;96460.34;;;8.09;100.00
36598;BME280;22607;49.550;11.940;2023-03-30T04:45:28;96462.00;;;8.10;100.00
36598;BME280;22607;49.550;11.940;2023-03-30T04:47:55;96465.94;;;8.06;100.00
36598;BME280;22607;49.550;11.940;2023-03-30T04:50:22;96467.41;;;8.09;100.00
36598;BME280;22607;49.550;11.940;2023-03-30T04:52:49;96464.44;;;8.12;100.00
36598;BME280;22607;49.550;11.940;2023-03-30T04:55:15;96456.78;;;8.10;100.00
36598;BME280;22607;49.550;11.940;2023-03-30T04:57:42;96461.97;;;8.19;100.00
36598;BME280;22607;49.550;11.940;2023-03-30T05:00:09;96462.31;;;8.16;100.00
36598;BME280;22607;49.550;11.940;2023-03-30T05:02:35;96469.34;;;8.15;100.00
36598;BME280;22607;49.550;11.940;2023-03-30T05:05:02;96468.53;;;8.06;100.00
36598;BME280;22607;49.550;11.940;2023-03-30T05:07:29;96467.41;;;8.09;100.00
36598;BME280;22607;49.550;11.940;2023-03-30T05:09:55;96471.16;;;8.06;100.00
36598;BME280;22607;49.550;11.940;2023-03-30T05:12:22;96463.28;;;8.14;100.00
36598;BME280;22607;49.550;11.940;2023-03-30T05:14:48;96463.44;;;8.21;100.00
36598;BME280;22607;49.550;11.940;2023-03-30T05:17:15;96458.72;;;8.17;100.00
36598;BME280;22607;49.550;11.940;2023-03-30T05:19:41;96464.59;;;8.19;100.00
36598;BME280;22607;49.550;11.940;2023-03-30T05:22:08;96450.03;;;8.24;100.00
36598;BME280;22607;49.550;11.940;2023-03-30T05:24:34;96451.66;;;8.34;100.00
36598;BME280;22607;49.550;11.940;2023-03-30T05:27:01;96454.72;;;8.37;100.00
36598;BME280;22607;49.550;11.940;2023-03-30T05:29:28;96464.03;;;8.40;100.00
36598;BME280;22607;49.550;11.940;2023-03-30T05:31:54;96461.94;;;8.44;100.00
36598;BME280;22607;49.550;11.940;2023-03-30T05:34:21;96468.47;;;8.48;100.00
36598;BME280;22607;49.550;11.940;2023-03-30T05:36:47;96457.34;;;8.46;100.00
36598;BME280;22607;49.550;11.940;2023-03-30T05:39:14;96470.44;;;8.54;100.00
36598;BME280;22607;49.550;11.940;2023-03-30T05:41:40;96469.72;;;8.69;100.00
36598;BME280;22607;49.550;11.940;2023-03-30T05:44:07;96466.47;;;8.66;100.00
36598;BME280;22607;49.550;11.940;2023-03-30T05:46:36;96477.91;;;8.65;100.00
36598;BME280;22607;49.550;11.940;2023-03-30T05:49:02;96475.97;;;8.59;100.00
36598;BME280;22607;49.550;11.940;2023-03-30T05:51:29;96470.75;;;8.59;100.00
36598;BME280;22607;49.550;11.940;2023-03-30T05:53:55;96475.34;;;8.49;100.00
36598;BME280;22607;49.550;11.940;2023-03-30T05:56:22;96475.66;;;8.54;100.00
36598;BME280;22607;49.550;11.940;2023-03-30T05:58:50;96462.88;;;8.51;100.00
36598;BME280;22607;49.550;11.940;2023-03-30T06:01:16;96456.69;;;8.44;100.00
36598;BME280;22607;49.550;11.940;2023-03-30T06:03:43;96465.56;;;8.26;100.00
36598;BME280;22607;49.550;11.940;2023-03-30T06:06:10;96466.50;;;8.33;100.00
36598;BME280;22607;49.550;11.940;2023-03-30T06:08:39;96477.47;;;8.45;100.00
36598;BME280;22607;49.550;11.940;2023-03-30T06:11:07;96482.19;;;8.50;100.00
36598;BME280;22607;49.550;11.940;2023-03-30T06:13:33;96477.78;;;8.59;100.00
36598;BME280;22607;49.550;11.940;2023-03-30T06:16:00;96475.84;;;8.52;100.00
36598;BME280;22607;49.550;11.940;2023-03-30T06:18:29;96470.91;;;8.49;100.00
36598;BME280;22607;49.550;11.940;2023-03-30T06:20:55;96475.28;;;8.65;100.00
36598;BME280;22607;49.550;11.940;2023-03-30T06:23:22;96473.81;;;8.71;100.00
36598;BME280;22607;49.550;11.940;2023-03-30T06:25:49;96463.00;;;8.74;100.00
36598;BME280;22607;49.550;11.940;2023-03-30T06:28:19;96453.00;;;8.78;100.00
36598;BME280;22607;49.550;11.940;2023-03-30T06:30:46;96451.22;;;8.78;100.00
36598;BME280;22607;49.550;11.940;2023-03-30T06:33:15;96454.63;;;8.79;100.00
36598;BME280;22607;49.550;11.940;2023-03-30T06:35:46;96451.38;;;8.77;100.00
36598;BME280;22607;49.550;11.940;2023-03-30T06:38:13;96442.88;;;8.75;100.00
36598;BME280;22607;49.550;11.940;2023-03-30T06:40:41;96423.75;;;8.74;100.00
36598;BME280;22607;49.550;11.940;2023-03-30T06:43:14;96416.09;;;8.96;100.00
36598;BME280;22607;49.550;11.940;2023-03-30T06:45:40;96412.19;;;8.92;100.00
36598;BME280;22607;49.550;11.940;2023-03-30T06:48:07;96412.69;;;8.87;100.00
36598;BME280;22607;49.550;11.940;2023-03-30T06:50:34;96407.38;;;9.04;100.00
36598;BME280;22607;49.550;11.940;2023-03-30T06:53:01;96405.53;;;9.13;100.00
36598;BME280;22607;49.550;11.940;2023-03-30T06:55:29;96385.97;;;9.24;100.00
36598;BME280;22607;49.550;11.940;2023-03-30T06:57:56;96379.09;;;9.46;100.00
36598;BME280;22607;49.550;11.940;2023-03-30T07:00:22;96358.88;;;9.55;100.00
36598;BME280;22607;49.550;11.940;2023-03-30T07:02:49;96365.03;;;9.62;100.00
36598;BME280;22607;49.550;11.940;2023-03-30T07:05:16;96365.13;;;9.69;100.00
36598;BME280;22607;49.550;11.940;2023-03-30T07:07:44;96357.44;;;9.67;100.00
36598;BME280;22607;49.550;11.940;2023-03-30T07:10:10;96358.09;;;9.69;100.00
36598;BME280;22607;49.550;11.940;2023-03-30T07:12:38;96359.91;;;9.84;100.00
36598;BME280;22607;49.550;11.940;2023-03-30T07:15:06;96358.00;;;9.93;100.00
36598;BME280;22607;49.550;11.940;2023-03-30T07:17:34;96357.63;;;9.81;100.00
36598;BME280;22607;49.550;11.940;2023-03-30T07:20:01;96363.81;;;9.88;100.00
36598;BME280;22607;49.550;11.940;2023-03-30T07:22:29;96375.38;;;9.79;100.00
36598;BME280;22607;49.550;11.940;2023-03-30T07:24:55;96387.50;;;9.80;100.00
36598;BME280;22607;49.550;11.940;2023-03-30T07:27:22;96392.72;;;9.80;100.00
36598;BME280;22607;49.550;11.940;2023-03-30T07:29:53;96396.06;;;9.74;100.00
36598;BME280;22607;49.550;11.940;2023-03-30T07:32:19;96380.69;;;9.70;100.00
36598;BME280;22607;49.550;11.940;2023-03-30T07:34:46;96382.97;;;9.74;100.00
36598;BME280;22607;49.550;11.940;2023-03-30T07:37:12;96376.06;;;9.72;100.00
36598;BME280;22607;49.550;11.940;2023-03-30T07:39:46;96359.06;;;9.68;100.00
36598;BME280;22607;49.550;11.940;2023-03-30T07:42:13;96385.81;;;9.64;100.00
36598;BME280;22607;49.550;11.940;2023-03-30T07:44:39;96384.94;;;9.71;100.00
36598;BME280;22607;49.550;11.940;2023-03-30T07:47:06;96382.34;;;9.87;100.00
36598;BME280;22607;49.550;11.940;2023-03-30T07:49:33;96384.06;;;9.94;100.00
36598;BME280;22607;49.550;11.940;2023-03-30T07:51:59;96380.28;;;10.27;100.00
36598;BME280;22607;49.550;11.940;2023-03-30T07:54:26;96367.78;;;10.14;100.00
36598;BME280;22607;49.550;11.940;2023-03-30T07:56:53;96361.91;;;10.27;100.00
36598;BME280;22607;49.550;11.940;2023-03-30T07:59:22;96376.19;;;10.24;100.00
36598;BME280;22607;49.550;11.940;2023-03-30T08:01:49;96376.03;;;10.26;100.00
36598;BME280;22607;49.550;11.940;2023-03-30T08:04:17;96367.88;;;10.21;100.00
36598;BME280;22607;49.550;11.940;2023-03-30T08:06:44;96362.09;;;10.10;100.00
36598;BME280;22607;49.550;11.940;2023-03-30T08:09:10;96356.81;;;10.41;100.00
36598;BME280;22607;49.550;11.940;2023-03-30T08:11:38;96370.25;;;10.46;100.00
36598;BME280;22607;49.550;11.940;2023-03-30T08:14:05;96377.38;;;10.22;100.00
36598;BME280;22607;49.550;11.940;2023-03-30T08:16:31;96385.44;;;10.05;100.00
36598;BME280;22607;49.550;11.940;2023-03-30T08:18:58;96397.34;;;9.93;100.00
36598;BME280;22607;49.550;11.940;2023-03-30T08:21:24;96406.88;;;10.09;100.00
36598;BME280;22607;49.550;11.940;2023-03-30T08:23:52;96432.66;;;10.05;100.00
36598;BME280;22607;49.550;11.940;2023-03-30T08:26:26;96440.00;;;10.10;100.00
36598;BME280;22607;49.550;11.940;2023-03-30T08:28:53;96448.50;;;10.12;100.00
36598;BME280;22607;49.550;11.940;2023-03-30T08:31:20;96462.69;;;10.03;100.00
36598;BME280;22607;49.550;11.940;2023-03-30T08:33:47;96440.00;;;10.10;100.00
36598;BME280;22607;49.550;11.940;2023-03-30T08:36:15;96433.66;;;10.19;100.00
36598;BME280;22607;49.550;11.940;2023-03-30T08:38:41;96430.78;;;10.29;100.00
36598;BME280;22607;49.550;11.940;2023-03-30T08:43:59;96413.94;;;10.23;100.00
36598;BME280;22607;49.550;11.940;2023-03-30T08:46:28;96409.44;;;10.32;100.00
36598;BME280;22607;49.550;11.940;2023-03-30T08:48:57;96410.31;;;10.24;100.00
36598;BME280;22607;49.550;11.940;2023-03-30T08:51:28;96413.50;;;10.35;100.00
36598;BME280;22607;49.550;11.940;2023-03-30T08:54:05;96414.13;;;10.37;100.00
36598;BME280;22607;49.550;11.940;2023-03-30T08:59:22;96435.13;;;10.37;100.00
36598;BME280;22607;49.550;11.940;2023-03-30T09:07:15;96477.47;;;10.34;100.00
36598;BME280;22607;49.550;11.940;2023-03-30T09:09:44;96508.88;;;10.27;100.00
36598;BME280;22607;49.550;11.940;2023-03-30T09:14:57;96508.81;;;10.20;100.00
36598;BME280;22607;49.550;11.940;2023-03-30T09:17:41;96502.00;;;10.26;100.00
36598;BME280;22607;49.550;11.940;2023-03-30T09:20:16;96522.47;;;10.31;100.00
36598;BME280;22607;49.550;11.940;2023-03-30T09:22:47;96491.88;;;10.38;100.00
36598;BME280;22607;49.550;11.940;2023-03-30T09:25:25;96475.25;;;10.46;100.00
36598;BME280;22607;49.550;11.940;2023-03-30T09:30:53;96477.97;;;10.37;100.00
36598;BME280;22607;49.550;11.940;2023-03-30T09:33:40;96479.41;;;10.40;100.00
36598;BME280;22607;49.550;11.940;2023-03-30T09:36:14;96471.16;;;10.43;100.00
36598;BME280;22607;49.550;11.940;2023-03-30T09:38:42;96489.53;;;10.43;100.00
36598;BME280;22607;49.550;11.940;2023-03-30T09:43:57;96474.66;;;10.59;100.00
36598;BME280;22607;49.550;11.940;2023-03-30T09:46:24;96486.03;;;10.66;100.00
36598;BME280;22607;49.550;11.940;2023-03-30T09:48:51;96492.75;;;10.54;100.00
36598;BME280;22607;49.550;11.940;2023-03-30T09:51:23;96495.00;;;10.72;100.00
36598;BME280;22607;49.550;11.940;2023-03-30T09:53:56;96478.00;;;10.68;100.00
36598;BME280;22607;49.550;11.940;2023-03-30T09:56:38;96472.56;;;10.84;100.00
36598;BME280;22607;49.550;11.940;2023-03-30T09:59:33;96456.41;;;10.87;100.00
36598;BME280;22607;49.550;11.940;2023-03-30T10:05:13;96445.41;;;11.14;100.00
36598;BME280;22607;49.550;11.940;2023-03-30T10:07:42;96456.66;;;11.08;100.00
36598;BME280;22607;49.550;11.940;2023-03-30T10:13:01;96475.31;;;11.13;100.00
36598;BME280;22607;49.550;11.940;2023-03-30T10:15:29;96452.91;;;11.17;100.00
36598;BME280;22607;49.550;11.940;2023-03-30T10:18:01;96472.50;;;11.14;100.00
36598;BME280;22607;49.550;11.940;2023-03-30T10:20:32;96465.44;;;11.15;100.00
36598;BME280;22607;49.550;11.940;2023-03-30T10:23:12;96463.25;;;11.19;100.00
36598;BME280;22607;49.550;11.940;2023-03-30T10:25:41;96455.28;;;11.12;100.00
36598;BME280;22607;49.550;11.940;2023-03-30T10:28:16;96452.44;;;11.28;100.00
36598;BME280;22607;49.550;11.940;2023-03-30T10:30:50;96444.00;;;11.33;100.00
36598;BME280;22607;49.550;11.940;2023-03-30T10:33:18;96438.78;;;11.40;100.00
36598;BME280;22607;49.550;11.940;2023-03-30T10:35:46;96450.28;;;11.54;100.00
36598;BME280;22607;49.550;11.940;2023-03-30T10:38:15;96450.94;;;11.63;100.00
36598;BME280;22607;49.550;11.940;2023-03-30T10:40:43;96455.97;;;11.58;100.00
36598;BME280;22607;49.550;11.940;2023-03-30T10:43:18;96463.22;;;11.55;100.00
36598;BME280;22607;49.550;11.940;2023-03-30T10:45:49;96468.75;;;11.61;100.00
36598;BME280;22607;49.550;11.940;2023-03-30T10:48:39;96432.28;;;11.79;100.00
36598;BME280;22607;49.550;11.940;2023-03-30T10:51:32;96375.72;;;11.97;100.00
36598;BME280;22607;49.550;11.940;2023-03-30T10:54:15;96370.34;;;11.77;100.00
36598;BME280;22607;49.550;11.940;2023-03-30T10:56:50;96400.41;;;11.96;100.00
36598;BME280;22607;49.550;11.940;2023-03-30T10:59:32;96380.78;;;12.20;100.00
36598;BME280;22607;49.550;11.940;2023-03-30T11:02:20;96375.50;;;12.20;100.00
36598;BME280;22607;49.550;11.940;2023-03-30T11:07:40;96359.06;;;12.18;100.00
36598;BME280;22607;49.550;11.940;2023-03-30T11:10:15;96364.97;;;12.20;100.00
36598;BME280;22607;49.550;11.940;2023-03-30T11:12:48;96370.66;;;12.24;100.00
36598;BME280;22607;49.550;11.940;2023-03-30T11:15:22;96361.44;;;12.42;100.00
36598;BME280;22607;49.550;11.940;2023-03-30T11:18:15;96363.91;;;12.50;100.00
36598;BME280;22607;49.550;11.940;2023-03-30T11:20:55;96368.78;;;12.53;100.00
36598;BME280;22607;49.550;11.940;2023-03-30T11:23:53;96377.94;;;12.64;100.00
36598;BME280;22607;49.550;11.940;2023-03-30T11:26:28;96374.03;;;12.53;100.00
36598;BME280;22607;49.550;11.940;2023-03-30T11:29:43;96353.06;;;12.80;100.00
36598;BME280;22607;49.550;11.940;2023-03-30T11:32:31;96371.53;;;12.87;100.00
36598;BME280;22607;49.550;11.940;2023-03-30T11:35:11;96367.84;;;12.81;100.00
36598;BME280;22607;49.550;11.940;2023-03-30T11:37:49;96358.16;;;12.89;100.00
36598;BME280;22607;49.550;11.940;2023-03-30T11:40:26;96366.41;;;12.72;100.00
36598;BME280;22607;49.550;11.940;2023-03-30T11:42:54;96365.84;;;12.83;100.00
36598;BME280;22607;49.550;11.940;2023-03-30T11:53:56;96379.84;;;12.77;100.00
36598;BME280;22607;49.550;11.940;2023-03-30T11:57:07;96385.00;;;13.26;100.00
36598;BME280;22607;49.550;11.940;2023-03-30T11:59:48;96391.66;;;13.08;100.00
36598;BME280;22607;49.550;11.940;2023-03-30T12:02:33;96390.88;;;13.28;100.00
36598;BME280;22607;49.550;11.940;2023-03-30T12:05:10;96388.47;;;13.47;100.00
36598;BME280;22607;49.550;11.940;2023-03-30T12:07:46;96381.19;;;13.42;100.00
36598;BME280;22607;49.550;11.940;2023-03-30T12:10:36;96368.22;;;13.47;100.00
36598;BME280;22607;49.550;11.940;2023-03-30T12:13:04;96367.78;;;13.44;100.00
36598;BME280;22607;49.550;11.940;2023-03-30T12:15:59;96360.06;;;13.22;100.00
36598;BME280;22607;49.550;11.940;2023-03-30T12:18:49;96379.53;;;13.21;100.00
36598;BME280;22607;49.550;11.940;2023-03-30T12:21:40;96360.06;;;13.22;100.00
36598;BME280;22607;49.550;11.940;2023-03-30T12:26:44;96353.53;;;13.04;100.00
36598;BME280;22607;49.550;11.940;2023-03-30T12:29:51;96369.78;;;13.28;100.00
36598;BME280;22607;49.550;11.940;2023-03-30T12:32:25;96359.66;;;13.25;100.00
36598;BME280;22607;49.550;11.940;2023-03-30T12:34:55;96352.41;;;13.54;100.00
36598;BME280;22607;49.550;11.940;2023-03-30T12:37:35;96364.72;;;13.47;100.00
36598;BME280;22607;49.550;11.940;2023-03-30T12:40:06;96369.00;;;13.41;100.00
36598;BME280;22607;49.550;11.940;2023-03-30T12:42:51;96352.41;;;13.54;100.00
36598;BME280;22607;49.550;11.940;2023-03-30T12:45:32;96360.44;;;13.19;100.00
36598;BME280;22607;49.550;11.940;2023-03-30T12:48:08;96360.47;;;13.25;100.00
36598;BME280;22607;49.550;11.940;2023-03-30T12:56:21;96360.53;;;13.73;100.00
36598;BME280;22607;49.550;11.940;2023-03-30T12:59:24;96338.19;;;13.62;100.00
36598;BME280;22607;49.550;11.940;2023-03-30T13:02:06;96342.00;;;14.13;100.00
36598;BME280;22607;49.550;11.940;2023-03-30T13:04:43;96343.41;;;14.09;100.00
36598;BME280;22607;49.550;11.940;2023-03-30T13:07:14;96346.44;;;14.20;100.00
36598;BME280;22607;49.550;11.940;2023-03-30T13:10:00;96330.97;;;14.30;100.00
36598;BME280;22607;49.550;11.940;2023-03-30T13:12:38;96333.63;;;14.16;100.00
36598;BME280;22607;49.550;11.940;2023-03-30T13:18:23;96320.22;;;14.25;100.00
36598;BME280;22607;49.550;11.940;2023-03-30T13:25:52;96327.91;;;14.33;100.00
36598;BME280;22607;49.550;11.940;2023-03-30T13:28:31;96326.34;;;14.71;100.00
36598;BME280;22607;49.550;11.940;2023-03-30T13:31:08;96323.41;;;14.40;100.00
36598;BME280;22607;49.550;11.940;2023-03-30T13:33:46;96308.09;;;14.56;100.00
36598;BME280;22607;49.550;11.940;2023-03-30T13:36:17;96325.19;;;13.74;100.00
36598;BME280;22607;49.550;11.940;2023-03-30T13:41:47;96321.31;;;13.83;100.00
36598;BME280;22607;49.550;11.940;2023-03-30T13:46:51;96305.78;;;14.21;100.00
36598;BME280;22607;49.550;11.940;2023-03-30T13:52:09;96298.72;;;14.14;100.00
36598;BME280;22607;49.550;11.940;2023-03-30T13:54:38;96291.00;;;14.06;100.00
36598;BME280;22607;49.550;11.940;2023-03-30T13:59:37;96299.91;;;14.25;100.00
36598;BME280;22607;49.550;11.940;2023-03-30T14:02:10;96291.84;;;14.07;100.00
36598;BME280;22607;49.550;11.940;2023-03-30T14:04:39;96286.03;;;14.37;100.00
36598;BME280;22607;49.550;11.940;2023-03-30T14:07:13;96279.06;;;14.49;100.00
36598;BME280;22607;49.550;11.940;2023-03-30T14:09:42;96286.84;;;14.37;100.00
36598;BME280;22607;49.550;11.940;2023-03-30T14:12:11;96284.38;;;14.42;100.00
36598;BME280;22607;49.550;11.940;2023-03-30T14:14:42;96277.22;;;14.50;100.00
36598;BME280;22607;49.550;11.940;2023-03-30T14:17:19;96264.50;;;14.33;100.00
36598;BME280;22607;49.550;11.940;2023-03-30T14:22:48;96245.25;;;14.65;100.00
36598;BME280;22607;49.550;11.940;2023-03-30T14:25:34;96242.75;;;14.77;100.00
36598;BME280;22607;49.550;11.940;2023-03-30T14:28:06;96247.38;;;14.88;100.00
36598;BME280;22607;49.550;11.940;2023-03-30T14:30:33;96240.13;;;14.77;100.00
36598;BME280;22607;49.550;11.940;2023-03-30T14:33:08;96234.56;;;14.85;100.00
36598;BME280;22607;49.550;11.940;2023-03-30T14:35:40;96233.94;;;14.90;100.00
36598;BME280;22607;49.550;11.940;2023-03-30T14:38:25;96227.69;;;14.84;100.00
36598;BME280;22607;49.550;11.940;2023-03-30T14:40:53;96220.06;;;14.94;100.00
36598;BME280;22607;49.550;11.940;2023-03-30T14:43:30;96217.72;;;14.79;100.00
36598;BME280;22607;49.550;11.940;2023-03-30T14:46:00;96223.59;;;14.88;100.00
36598;BME280;22607;49.550;11.940;2023-03-30T14:48:34;96225.47;;;15.06;100.00